This is the latest recevied weather packets stored in our database for station/object OM2RC-6. If no packets are shown the sender has not sent any weather packets the latest 10 day(s).
| Time | Temp. | Humidity | Pressure | Rain* | Wind** | Luminosity | Snow |
|---|---|---|---|---|---|---|---|
| 1777639952 | 17.78° C | 49% | 1027.7 hPa | - | - | - | - |
| 1777639652 | 17.78° C | 50% | 1027.7 hPa | - | - | - | - |
| 1777639350 | 17.78° C | 49% | 1027.9 hPa | - | - | - | - |
| 1777639049 | 16.67° C | 50% | 1028 hPa | - | - | - | - |
| 1777638748 | 17.78° C | 47% | 1028 hPa | - | - | - | - |
| 1777638448 | 17.22° C | 48% | 1028.2 hPa | - | - | - | - |
| 1777638147 | 18.33° C | 46% | 1028.2 hPa | - | - | - | - |
| 1777637846 | 18.89° C | 45% | 1028.2 hPa | - | - | - | - |
| 1777637545 | 19.44° C | 44% | 1028.3 hPa | - | - | - | - |
| 1777637244 | 18.33° C | 46% | 1028.5 hPa | - | - | - | - |
| 1777636943 | 17.78° C | 47% | 1028.5 hPa | - | - | - | - |
| 1777636642 | 17.22° C | 47% | 1028.4 hPa | - | - | - | - |
| 1777636040 | 17.78° C | 47% | 1028.7 hPa | - | - | - | - |
| 1777635739 | 18.89° C | 44% | 1028.6 hPa | - | - | - | - |
| 1777635438 | 18.33° C | 46% | 1028.7 hPa | - | - | - | - |
| 1777634836 | 17.78° C | 47% | 1028.9 hPa | - | - | - | - |
| 1777634535 | 17.22° C | 49% | 1029 hPa | - | - | - | - |
| 1777634234 | 18.33° C | 47% | 1029 hPa | - | - | - | - |
| 1777633933 | 17.22° C | 48% | 1029.1 hPa | - | - | - | - |
| 1777633632 | 16.67° C | 50% | 1029 hPa | - | - | - | - |
| 1777633331 | 17.78° C | 47% | 1029.2 hPa | - | - | - | - |
| 1777633030 | 16.11° C | 51% | 1029.2 hPa | - | - | - | - |
| 1777632729 | 16.11° C | 52% | 1029.3 hPa | - | - | - | - |
| 1777632428 | 17.22° C | 48% | 1029.2 hPa | - | - | - | - |
| 1777631826 | 17.78° C | 47% | 1029.2 hPa | - | - | - | - |
* Rain since midnight (hover to see other rain measurements)
** Current wind speed in m/s (hover to see current wind gust speed)